sensor_id;sensor_type;location;lat;lon;timestamp;pressure;altitude;pressure_sealevel;temperature;humidity
63654;BME280;49809;47.418;19.080;2023-02-04T00:01:56;100176.06;;;3.69;96.30
63654;BME280;49809;47.418;19.080;2023-02-04T00:05:35;100178.94;;;3.61;96.82
63654;BME280;49809;47.418;19.080;2023-02-04T00:09:24;100173.06;;;3.72;96.27
63654;BME280;49809;47.418;19.080;2023-02-04T00:24:04;100160.91;;;3.84;95.26
63654;BME280;49809;47.418;19.080;2023-02-04T01:07:50;100132.50;;;3.50;97.79
63654;BME280;49809;47.418;19.080;2023-02-04T01:11:23;100132.63;;;3.62;96.91
63654;BME280;49809;47.418;19.080;2023-02-04T01:18:34;100123.91;;;3.74;96.14
63654;BME280;49809;47.418;19.080;2023-02-04T01:22:15;100110.72;;;3.87;95.30
63654;BME280;49809;47.418;19.080;2023-02-04T01:25:42;100121.41;;;3.86;95.50
63654;BME280;49809;47.418;19.080;2023-02-04T02:20:38;100118.19;;;4.40;91.30
63654;BME280;49809;47.418;19.080;2023-02-04T02:24:31;100114.91;;;4.45;91.02
63654;BME280;49809;47.418;19.080;2023-02-04T02:28:19;100107.91;;;4.38;91.97
63654;BME280;49809;47.418;19.080;2023-02-04T02:35:35;100103.19;;;4.47;91.11
63654;BME280;49809;47.418;19.080;2023-02-04T02:39:18;100106.09;;;4.39;91.23
63654;BME280;49809;47.418;19.080;2023-02-04T02:57:21;100075.56;;;4.26;91.70
63654;BME280;49809;47.418;19.080;2023-02-04T03:00:28;100073.03;;;4.38;91.02
63654;BME280;49809;47.418;19.080;2023-02-04T03:04:00;100071.44;;;4.37;91.42
63654;BME280;49809;47.418;19.080;2023-02-04T03:07:07;100062.88;;;4.48;90.76
63654;BME280;49809;47.418;19.080;2023-02-04T03:10:11;100063.16;;;4.40;91.24
63654;BME280;49809;47.418;19.080;2023-02-04T03:13:18;100071.88;;;4.34;91.36
63654;BME280;49809;47.418;19.080;2023-02-04T03:16:31;100069.97;;;4.41;90.94
63654;BME280;49809;47.418;19.080;2023-02-04T03:19:39;100070.41;;;4.38;91.26
63654;BME280;49809;47.418;19.080;2023-02-04T03:22:47;100076.66;;;4.37;91.59
63654;BME280;49809;47.418;19.080;2023-02-04T03:25:51;100073.47;;;4.35;91.82
63654;BME280;49809;47.418;19.080;2023-02-04T03:28:58;100080.31;;;4.36;92.23
63654;BME280;49809;47.418;19.080;2023-02-04T03:32:04;100073.91;;;4.32;92.71
63654;BME280;49809;47.418;19.080;2023-02-04T03:35:09;100065.78;;;4.40;92.65
63654;BME280;49809;47.418;19.080;2023-02-04T03:38:13;100067.66;;;4.33;93.81
63654;BME280;49809;47.418;19.080;2023-02-04T03:41:19;100052.56;;;4.28;94.30
63654;BME280;49809;47.418;19.080;2023-02-04T03:44:27;100063.84;;;4.29;94.47
63654;BME280;49809;47.418;19.080;2023-02-04T03:47:30;100052.62;;;4.22;95.55
63654;BME280;49809;47.418;19.080;2023-02-04T03:50:34;100064.34;;;4.19;95.90
63654;BME280;49809;47.418;19.080;2023-02-04T03:53:41;100052.62;;;4.22;95.60
63654;BME280;49809;47.418;19.080;2023-02-04T03:56:45;100062.75;;;4.18;95.90
63654;BME280;49809;47.418;19.080;2023-02-04T03:59:48;100062.16;;;4.16;97.08
63654;BME280;49809;47.418;19.080;2023-02-04T04:02:55;100070.81;;;4.17;96.60
63654;BME280;49809;47.418;19.080;2023-02-04T04:06:00;100057.53;;;4.12;97.37
63654;BME280;49809;47.418;19.080;2023-02-04T04:09:03;100059.91;;;4.20;96.44
63654;BME280;49809;47.418;19.080;2023-02-04T04:12:07;100066.38;;;4.17;96.65
63654;BME280;49809;47.418;19.080;2023-02-04T04:15:15;100068.13;;;4.23;96.12
63654;BME280;49809;47.418;19.080;2023-02-04T04:18:25;100068.19;;;4.17;97.32
63654;BME280;49809;47.418;19.080;2023-02-04T04:21:48;100054.94;;;4.12;97.73
63654;BME280;49809;47.418;19.080;2023-02-04T04:24:53;100074.13;;;4.06;98.29
63654;BME280;49809;47.418;19.080;2023-02-04T04:27:58;100066.03;;;4.07;98.65
63654;BME280;49809;47.418;19.080;2023-02-04T04:31:03;100069.75;;;4.00;99.64
63654;BME280;49809;47.418;19.080;2023-02-04T04:34:06;100057.63;;;4.05;98.74
63654;BME280;49809;47.418;19.080;2023-02-04T04:37:14;100057.97;;;4.09;98.47
63654;BME280;49809;47.418;19.080;2023-02-04T04:40:39;100055.16;;;4.10;98.44
63654;BME280;49809;47.418;19.080;2023-02-04T04:43:49;100060.75;;;4.14;97.85
63654;BME280;49809;47.418;19.080;2023-02-04T04:46:52;100058.44;;;4.06;98.09
63654;BME280;49809;47.418;19.080;2023-02-04T04:49:55;100046.66;;;4.15;96.86
63654;BME280;49809;47.418;19.080;2023-02-04T04:53:06;100066.53;;;4.22;95.60
63654;BME280;49809;47.418;19.080;2023-02-04T04:56:13;100062.09;;;4.23;94.98
63654;BME280;49809;47.418;19.080;2023-02-04T04:59:36;100068.34;;;4.22;94.81
63654;BME280;49809;47.418;19.080;2023-02-04T05:02:42;100070.09;;;4.28;94.26
63654;BME280;49809;47.418;19.080;2023-02-04T05:06:05;100064.44;;;4.31;93.76
63654;BME280;49809;47.418;19.080;2023-02-04T05:09:11;100066.28;;;4.30;94.00
63654;BME280;49809;47.418;19.080;2023-02-04T05:12:21;100048.44;;;4.39;92.55
63654;BME280;49809;47.418;19.080;2023-02-04T05:15:26;100043.06;;;4.34;93.29
63654;BME280;49809;47.418;19.080;2023-02-04T05:18:29;100035.91;;;4.41;91.93
63654;BME280;49809;47.418;19.080;2023-02-04T05:21:35;100024.19;;;4.44;91.61
63654;BME280;49809;47.418;19.080;2023-02-04T05:24:42;100021.22;;;4.40;91.64
63654;BME280;49809;47.418;19.080;2023-02-04T05:28:10;100006.50;;;4.39;91.79
63654;BME280;49809;47.418;19.080;2023-02-04T05:31:14;100008.03;;;4.47;90.73
63654;BME280;49809;47.418;19.080;2023-02-04T05:34:17;99989.03;;;4.51;89.67
63654;BME280;49809;47.418;19.080;2023-02-04T05:37:22;99985.09;;;4.42;90.65
63654;BME280;49809;47.418;19.080;2023-02-04T05:40:25;99979.16;;;4.35;91.17
63654;BME280;49809;47.418;19.080;2023-02-04T05:43:30;99983.19;;;4.31;90.90
63654;BME280;49809;47.418;19.080;2023-02-04T05:46:36;99949.72;;;4.33;90.73
63654;BME280;49809;47.418;19.080;2023-02-04T05:49:40;99953.66;;;4.24;92.31
63654;BME280;49809;47.418;19.080;2023-02-04T05:52:47;99958.16;;;4.17;93.71
63654;BME280;49809;47.418;19.080;2023-02-04T05:55:50;99958.31;;;4.04;94.59
63654;BME280;49809;47.418;19.080;2023-02-04T05:58:53;99966.28;;;3.90;95.23
63654;BME280;49809;47.418;19.080;2023-02-04T06:01:59;99988.09;;;3.84;95.57
63654;BME280;49809;47.418;19.080;2023-02-04T06:05:02;100005.44;;;3.79;95.39
63654;BME280;49809;47.418;19.080;2023-02-04T06:08:07;100015.12;;;3.78;94.68
63654;BME280;49809;47.418;19.080;2023-02-04T06:11:29;100048.78;;;3.75;94.44
63654;BME280;49809;47.418;19.080;2023-02-04T06:14:31;100090.06;;;3.73;92.34
63654;BME280;49809;47.418;19.080;2023-02-04T06:17:37;100088.41;;;3.78;91.03
63654;BME280;49809;47.418;19.080;2023-02-04T06:20:40;100099.75;;;3.72;90.54
63654;BME280;49809;47.418;19.080;2023-02-04T06:23:46;100095.19;;;3.61;90.05
63654;BME280;49809;47.418;19.080;2023-02-04T06:26:49;100115.28;;;3.67;88.79
63654;BME280;49809;47.418;19.080;2023-02-04T06:29:53;100115.53;;;3.59;89.38
63654;BME280;49809;47.418;19.080;2023-02-04T06:32:57;100109.72;;;3.57;88.84
63654;BME280;49809;47.418;19.080;2023-02-04T06:36:03;100113.16;;;3.51;89.33
63654;BME280;49809;47.418;19.080;2023-02-04T06:39:10;100124.28;;;3.40;88.97
63654;BME280;49809;47.418;19.080;2023-02-04T06:42:13;100117.88;;;3.36;88.78
63654;BME280;49809;47.418;19.080;2023-02-04T06:45:17;100124.53;;;3.32;88.97
63654;BME280;49809;47.418;19.080;2023-02-04T06:48:23;100122.16;;;3.24;88.91
63654;BME280;49809;47.418;19.080;2023-02-04T06:51:29;100127.78;;;3.21;88.96
63654;BME280;49809;47.418;19.080;2023-02-04T06:54:39;100128.63;;;3.15;88.76
63654;BME280;49809;47.418;19.080;2023-02-04T06:57:43;100136.25;;;3.16;88.71
63654;BME280;49809;47.418;19.080;2023-02-04T07:01:28;100155.56;;;3.15;88.38
63654;BME280;49809;47.418;19.080;2023-02-04T07:04:31;100136.69;;;3.13;87.99
63654;BME280;49809;47.418;19.080;2023-02-04T07:07:36;100134.25;;;3.12;87.96
63654;BME280;49809;47.418;19.080;2023-02-04T07:10:43;100127.03;;;3.14;87.45
63654;BME280;49809;47.418;19.080;2023-02-04T07:13:47;100133.44;;;3.18;85.71
63654;BME280;49809;47.418;19.080;2023-02-04T07:16:56;100118.19;;;3.15;86.00
63654;BME280;49809;47.418;19.080;2023-02-04T07:20:00;100147.53;;;3.10;84.61
63654;BME280;49809;47.418;19.080;2023-02-04T07:23:05;100161.84;;;3.08;83.55
63654;BME280;49809;47.418;19.080;2023-02-04T07:26:13;100181.19;;;3.00;84.15
63654;BME280;49809;47.418;19.080;2023-02-04T07:29:16;100183.37;;;2.96;84.74
63654;BME280;49809;47.418;19.080;2023-02-04T07:32:31;100188.22;;;2.86;82.88
63654;BME280;49809;47.418;19.080;2023-02-04T07:35:35;100182.63;;;2.70;84.11
63654;BME280;49809;47.418;19.080;2023-02-04T07:38:41;100213.97;;;2.50;85.58
63654;BME280;49809;47.418;19.080;2023-02-04T07:41:44;100209.94;;;2.47;84.95
63654;BME280;49809;47.418;19.080;2023-02-04T07:44:50;100224.81;;;2.34;85.10
63654;BME280;49809;47.418;19.080;2023-02-04T07:47:55;100212.16;;;2.31;85.23
63654;BME280;49809;47.418;19.080;2023-02-04T07:51:02;100232.28;;;2.37;84.35
63654;BME280;49809;47.418;19.080;2023-02-04T07:54:11;100227.41;;;2.34;84.58
63654;BME280;49809;47.418;19.080;2023-02-04T07:57:23;100229.66;;;2.50;83.08
63654;BME280;49809;47.418;19.080;2023-02-04T08:00:32;100237.69;;;2.55;82.08
63654;BME280;49809;47.418;19.080;2023-02-04T08:03:56;100249.16;;;2.54;80.32
63654;BME280;49809;47.418;19.080;2023-02-04T08:06:59;100245.75;;;2.60;79.14
63654;BME280;49809;47.418;19.080;2023-02-04T08:10:10;100263.84;;;2.68;78.86
63654;BME280;49809;47.418;19.080;2023-02-04T08:13:16;100264.25;;;2.78;78.61
63654;BME280;49809;47.418;19.080;2023-02-04T08:16:25;100263.41;;;2.91;78.32
63654;BME280;49809;47.418;19.080;2023-02-04T08:19:28;100271.88;;;2.99;77.81
63654;BME280;49809;47.418;19.080;2023-02-04T08:22:32;100290.38;;;2.91;77.24
63654;BME280;49809;47.418;19.080;2023-02-04T08:25:38;100308.47;;;2.93;77.40
63654;BME280;49809;47.418;19.080;2023-02-04T08:28:47;100312.50;;;2.95;76.71
63654;BME280;49809;47.418;19.080;2023-02-04T08:31:50;100326.81;;;2.99;76.04
63654;BME280;49809;47.418;19.080;2023-02-04T08:34:53;100329.81;;;2.90;76.69
63654;BME280;49809;47.418;19.080;2023-02-04T08:37:58;100318.31;;;2.91;76.22
63654;BME280;49809;47.418;19.080;2023-02-04T08:41:03;100323.16;;;3.00;75.76
63654;BME280;49809;47.418;19.080;2023-02-04T08:44:10;100314.53;;;3.00;75.85
63654;BME280;49809;47.418;19.080;2023-02-04T08:47:18;100335.63;;;3.12;74.96
63654;BME280;49809;47.418;19.080;2023-02-04T08:50:20;100325.78;;;3.00;76.10
63654;BME280;49809;47.418;19.080;2023-02-04T08:53:27;100323.75;;;3.16;75.62
63654;BME280;49809;47.418;19.080;2023-02-04T08:56:30;100316.13;;;3.08;73.57
63654;BME280;49809;47.418;19.080;2023-02-04T08:59:34;100328.19;;;2.95;74.42
63654;BME280;49809;47.418;19.080;2023-02-04T09:02:37;100351.53;;;2.90;73.70
63654;BME280;49809;47.418;19.080;2023-02-04T09:06:07;100340.47;;;2.75;74.47
63654;BME280;49809;47.418;19.080;2023-02-04T09:09:14;100349.88;;;2.63;74.89
63654;BME280;49809;47.418;19.080;2023-02-04T09:12:17;100366.31;;;2.50;74.36
63654;BME280;49809;47.418;19.080;2023-02-04T09:15:22;100406.50;;;2.49;75.02
63654;BME280;49809;47.418;19.080;2023-02-04T09:18:32;100427.59;;;2.48;75.22
63654;BME280;49809;47.418;19.080;2023-02-04T09:21:44;100421.81;;;2.59;75.26
63654;BME280;49809;47.418;19.080;2023-02-04T09:24:50;100450.16;;;2.62;74.37
63654;BME280;49809;47.418;19.080;2023-02-04T09:27:57;100479.78;;;2.76;74.18
63654;BME280;49809;47.418;19.080;2023-02-04T09:31:00;100487.41;;;2.77;74.73
63654;BME280;49809;47.418;19.080;2023-02-04T09:34:09;100501.13;;;2.86;73.85
63654;BME280;49809;47.418;19.080;2023-02-04T09:37:16;100513.81;;;2.89;73.33
63654;BME280;49809;47.418;19.080;2023-02-04T09:40:20;100557.91;;;3.05;72.85
63654;BME280;49809;47.418;19.080;2023-02-04T09:43:30;100560.97;;;3.09;73.10
63654;BME280;49809;47.418;19.080;2023-02-04T09:46:37;100565.44;;;3.28;72.28
63654;BME280;49809;47.418;19.080;2023-02-04T09:49:45;100592.44;;;3.41;72.83
63654;BME280;49809;47.418;19.080;2023-02-04T09:53:00;100578.97;;;3.38;71.83
63654;BME280;49809;47.418;19.080;2023-02-04T09:56:12;100575.31;;;3.39;70.23
63654;BME280;49809;47.418;19.080;2023-02-04T09:59:26;100604.16;;;3.52;71.69
63654;BME280;49809;47.418;19.080;2023-02-04T10:02:33;100599.22;;;3.97;67.15
63654;BME280;49809;47.418;19.080;2023-02-04T10:05:37;100611.47;;;4.03;67.70
63654;BME280;49809;47.418;19.080;2023-02-04T10:08:42;100604.81;;;3.80;67.82
63654;BME280;49809;47.418;19.080;2023-02-04T10:11:50;100622.72;;;3.70;67.03
63654;BME280;49809;47.418;19.080;2023-02-04T10:14:55;100614.88;;;3.83;67.49
63654;BME280;49809;47.418;19.080;2023-02-04T10:18:05;100631.44;;;3.90;66.81
63654;BME280;49809;47.418;19.080;2023-02-04T10:21:31;100627.41;;;4.01;65.69
63654;BME280;49809;47.418;19.080;2023-02-04T10:24:34;100651.59;;;4.03;66.08
63654;BME280;49809;47.418;19.080;2023-02-04T10:27:54;100664.91;;;4.15;65.55
63654;BME280;49809;47.418;19.080;2023-02-04T10:34:38;100699.94;;;4.01;62.52
63654;BME280;49809;47.418;19.080;2023-02-04T10:38:02;100707.00;;;4.00;63.41
63654;BME280;49809;47.418;19.080;2023-02-04T10:41:24;100725.91;;;3.89;63.65
63654;BME280;49809;47.418;19.080;2023-02-04T10:44:33;100739.13;;;3.74;62.61
63654;BME280;49809;47.418;19.080;2023-02-04T10:47:37;100754.47;;;3.77;62.60
63654;BME280;49809;47.418;19.080;2023-02-04T10:50:40;100782.50;;;3.90;62.55
63654;BME280;49809;47.418;19.080;2023-02-04T10:53:43;100778.09;;;3.90;62.23
63654;BME280;49809;47.418;19.080;2023-02-04T11:00:24;100805.16;;;4.11;61.38
63654;BME280;49809;47.418;19.080;2023-02-04T11:04:09;100818.94;;;4.39;61.22
63654;BME280;49809;47.418;19.080;2023-02-04T11:07:32;100812.87;;;4.32;60.21
63654;BME280;49809;47.418;19.080;2023-02-04T11:18:24;100838.50;;;4.43;60.15
63654;BME280;49809;47.418;19.080;2023-02-04T11:22:40;100861.88;;;4.38;59.63
63654;BME280;49809;47.418;19.080;2023-02-04T11:34:54;100897.91;;;4.16;59.24
63654;BME280;49809;47.418;19.080;2023-02-04T11:46:34;100933.06;;;4.35;56.10
63654;BME280;49809;47.418;19.080;2023-02-04T11:50:39;100939.16;;;4.49;54.63
63654;BME280;49809;47.418;19.080;2023-02-04T11:54:24;100964.75;;;5.01;54.24
63654;BME280;49809;47.418;19.080;2023-02-04T11:57:53;100957.56;;;5.95;52.29
63654;BME280;49809;47.418;19.080;2023-02-04T12:01:34;100967.44;;;5.80;49.68
63654;BME280;49809;47.418;19.080;2023-02-04T12:05:28;100976.91;;;5.28;50.10
63654;BME280;49809;47.418;19.080;2023-02-04T12:12:53;100987.25;;;4.75;52.51
63654;BME280;49809;47.418;19.080;2023-02-04T12:16:47;100982.44;;;4.86;51.18
63654;BME280;49809;47.418;19.080;2023-02-04T12:20:21;101021.44;;;4.89;51.43
63654;BME280;49809;47.418;19.080;2023-02-04T12:53:22;101063.47;;;4.67;52.87
63654;BME280;49809;47.418;19.080;2023-02-04T12:56:41;101083.69;;;4.39;54.20
63654;BME280;49809;47.418;19.080;2023-02-04T13:00:22;101085.56;;;4.52;54.30
63654;BME280;49809;47.418;19.080;2023-02-04T13:04:06;101122.66;;;4.21;54.92
63654;BME280;49809;47.418;19.080;2023-02-04T13:08:10;101104.84;;;4.37;54.84
63654;BME280;49809;47.418;19.080;2023-02-04T13:11:29;101114.50;;;4.37;53.69
63654;BME280;49809;47.418;19.080;2023-02-04T13:15:04;101140.69;;;3.88;54.18
63654;BME280;49809;47.418;19.080;2023-02-04T13:18:38;101152.06;;;4.16;53.73
63654;BME280;49809;47.418;19.080;2023-02-04T13:22:07;101156.22;;;4.11;52.30
63654;BME280;49809;47.418;19.080;2023-02-04T13:25:30;101159.84;;;4.10;51.33
63654;BME280;49809;47.418;19.080;2023-02-04T13:29:02;101153.88;;;4.16;51.77
63654;BME280;49809;47.418;19.080;2023-02-04T13:32:30;101175.31;;;4.26;50.87
63654;BME280;49809;47.418;19.080;2023-02-04T13:43:55;101177.81;;;3.91;50.84
63654;BME280;49809;47.418;19.080;2023-02-04T13:47:32;101188.12;;;3.78;52.05
63654;BME280;49809;47.418;19.080;2023-02-04T13:51:29;101218.31;;;3.74;51.90
63654;BME280;49809;47.418;19.080;2023-02-04T14:16:43;101297.31;;;3.63;46.94
63654;BME280;49809;47.418;19.080;2023-02-04T14:20:16;101308.41;;;3.36;46.64
63654;BME280;49809;47.418;19.080;2023-02-04T15:47:26;101487.50;;;0.97;57.07
63654;BME280;49809;47.418;19.080;2023-02-04T15:51:08;101505.56;;;0.90;57.98
63654;BME280;49809;47.418;19.080;2023-02-04T15:54:48;101502.59;;;0.77;58.36
63654;BME280;49809;47.418;19.080;2023-02-04T15:58:16;101506.16;;;0.76;57.44
63654;BME280;49809;47.418;19.080;2023-02-04T16:01:45;101519.16;;;0.68;58.27
63654;BME280;49809;47.418;19.080;2023-02-04T16:05:20;101528.56;;;0.61;58.40
63654;BME280;49809;47.418;19.080;2023-02-04T16:09:06;101546.78;;;0.53;60.06
63654;BME280;49809;47.418;19.080;2023-02-04T16:12:42;101552.59;;;0.47;62.32
63654;BME280;49809;47.418;19.080;2023-02-04T16:16:01;101546.69;;;0.36;63.31
63654;BME280;49809;47.418;19.080;2023-02-04T16:19:43;101564.06;;;0.28;64.26
63654;BME280;49809;47.418;19.080;2023-02-04T16:23:21;101562.28;;;0.28;64.03
63654;BME280;49809;47.418;19.080;2023-02-04T16:26:59;101553.94;;;0.25;63.18
63654;BME280;49809;47.418;19.080;2023-02-04T16:30:42;101555.66;;;0.16;63.61
63654;BME280;49809;47.418;19.080;2023-02-04T16:37:56;101574.25;;;0.21;62.18
63654;BME280;49809;47.418;19.080;2023-02-04T16:45:45;101555.25;;;0.03;63.13
63654;BME280;49809;47.418;19.080;2023-02-04T16:53:15;101561.75;;;-0.01;63.00
63654;BME280;49809;47.418;19.080;2023-02-04T16:56:57;101557.81;;;-0.05;62.10
63654;BME280;49809;47.418;19.080;2023-02-04T17:15:55;101578.19;;;-0.18;62.24
63654;BME280;49809;47.418;19.080;2023-02-04T17:19:22;101585.63;;;-0.23;61.85
63654;BME280;49809;47.418;19.080;2023-02-04T17:26:39;101597.03;;;-0.24;62.19
63654;BME280;49809;47.418;19.080;2023-02-04T17:30:19;101608.38;;;-0.25;62.75
63654;BME280;49809;47.418;19.080;2023-02-04T17:33:54;101619.38;;;-0.31;63.09
63654;BME280;49809;47.418;19.080;2023-02-04T17:37:41;101635.31;;;-0.34;63.26
63654;BME280;49809;47.418;19.080;2023-02-04T17:45:03;101660.94;;;-0.39;63.34
63654;BME280;49809;47.418;19.080;2023-02-04T17:48:47;101664.69;;;-0.52;63.66
63654;BME280;49809;47.418;19.080;2023-02-04T18:10:32;101714.53;;;-0.56;63.86
63654;BME280;49809;47.418;19.080;2023-02-04T18:14:23;101716.44;;;-0.49;62.34
63654;BME280;49809;47.418;19.080;2023-02-04T18:18:19;101723.25;;;-0.48;63.03
63654;BME280;49809;47.418;19.080;2023-02-04T18:21:57;101730.41;;;-0.50;63.26
63654;BME280;49809;47.418;19.080;2023-02-04T18:25:46;101730.88;;;-0.64;64.66
63654;BME280;49809;47.418;19.080;2023-02-04T18:33:31;101743.06;;;-0.64;64.36
63654;BME280;49809;47.418;19.080;2023-02-04T18:44:54;101746.25;;;-0.80;65.83
63654;BME280;49809;47.418;19.080;2023-02-04T18:52:18;101763.91;;;-0.74;65.32
63654;BME280;49809;47.418;19.080;2023-02-04T18:56:00;101762.53;;;-0.78;65.48
63654;BME280;49809;47.418;19.080;2023-02-04T18:59:39;101780.34;;;-0.83;65.25
63654;BME280;49809;47.418;19.080;2023-02-04T19:03:28;101792.66;;;-0.85;65.19
63654;BME280;49809;47.418;19.080;2023-02-04T19:07:14;101790.88;;;-0.84;65.05
63654;BME280;49809;47.418;19.080;2023-02-04T19:10:46;101807.44;;;-0.95;65.44
63654;BME280;49809;47.418;19.080;2023-02-04T19:13:53;101798.28;;;-0.90;64.57
63654;BME280;49809;47.418;19.080;2023-02-04T19:20:20;101804.19;;;-0.97;65.36
63654;BME280;49809;47.418;19.080;2023-02-04T19:23:35;101802.78;;;-1.01;65.36
63654;BME280;49809;47.418;19.080;2023-02-04T19:27:02;101799.78;;;-1.06;65.25
63654;BME280;49809;47.418;19.080;2023-02-04T19:33:37;101807.75;;;-1.17;65.77
63654;BME280;49809;47.418;19.080;2023-02-04T19:36:45;101813.37;;;-1.12;65.04
63654;BME280;49809;47.418;19.080;2023-02-04T19:39:53;101823.59;;;-1.20;65.55
63654;BME280;49809;47.418;19.080;2023-02-04T19:43:11;101829.22;;;-1.15;65.65
63654;BME280;49809;47.418;19.080;2023-02-04T19:46:22;101831.13;;;-1.17;66.11
63654;BME280;49809;47.418;19.080;2023-02-04T19:49:27;101824.59;;;-1.21;66.94
63654;BME280;49809;47.418;19.080;2023-02-04T19:52:36;101828.97;;;-1.22;67.87
63654;BME280;49809;47.418;19.080;2023-02-04T19:55:48;101841.38;;;-1.25;67.86
63654;BME280;49809;47.418;19.080;2023-02-04T19:58:54;101840.97;;;-1.31;68.63
63654;BME280;49809;47.418;19.080;2023-02-04T20:05:51;101841.94;;;-1.32;70.06
63654;BME280;49809;47.418;19.080;2023-02-04T20:12:32;101841.94;;;-1.32;70.84
63654;BME280;49809;47.418;19.080;2023-02-04T20:15:36;101848.75;;;-1.40;71.85
63654;BME280;49809;47.418;19.080;2023-02-04T20:18:45;101855.34;;;-1.46;72.27
63654;BME280;49809;47.418;19.080;2023-02-04T20:25:41;101859.41;;;-1.43;72.16
63654;BME280;49809;47.418;19.080;2023-02-04T20:29:18;101865.31;;;-1.51;72.70
63654;BME280;49809;47.418;19.080;2023-02-04T20:32:45;101860.50;;;-1.55;73.37
63654;BME280;49809;47.418;19.080;2023-02-04T20:43:02;101885.25;;;-1.61;73.88
63654;BME280;49809;47.418;19.080;2023-02-04T20:46:23;101888.50;;;-1.59;74.11
63654;BME280;49809;47.418;19.080;2023-02-04T20:49:27;101893.66;;;-1.68;74.36
63654;BME280;49809;47.418;19.080;2023-02-04T20:55:54;101898.28;;;-1.82;75.42
63654;BME280;49809;47.418;19.080;2023-02-04T21:02:16;101893.81;;;-1.80;75.27
63654;BME280;49809;47.418;19.080;2023-02-04T21:05:30;101894.47;;;-1.78;75.42
63654;BME280;49809;47.418;19.080;2023-02-04T21:08:40;101897.87;;;-1.77;75.47
63654;BME280;49809;47.418;19.080;2023-02-04T21:11:47;101882.59;;;-1.80;75.52
63654;BME280;49809;47.418;19.080;2023-02-04T21:14:49;101892.28;;;-1.82;75.80
63654;BME280;49809;47.418;19.080;2023-02-04T21:17:54;101884.28;;;-2.00;77.02
63654;BME280;49809;47.418;19.080;2023-02-04T21:20:57;101891.34;;;-2.11;77.71
63654;BME280;49809;47.418;19.080;2023-02-04T21:24:00;101883.12;;;-2.16;78.56
63654;BME280;49809;47.418;19.080;2023-02-04T21:27:05;101890.03;;;-2.27;78.62
63654;BME280;49809;47.418;19.080;2023-02-04T21:33:14;101892.81;;;-2.18;76.78
63654;BME280;49809;47.418;19.080;2023-02-04T21:36:19;101893.44;;;-2.26;77.97
63654;BME280;49809;47.418;19.080;2023-02-04T21:39:22;101884.59;;;-2.24;78.06
63654;BME280;49809;47.418;19.080;2023-02-04T21:42:50;101889.84;;;-2.14;76.64
63654;BME280;49809;47.418;19.080;2023-02-04T21:45:55;101874.34;;;-1.95;74.45
63654;BME280;49809;47.418;19.080;2023-02-04T21:48:58;101881.78;;;-1.81;73.52
63654;BME280;49809;47.418;19.080;2023-02-04T21:52:02;101891.88;;;-1.78;73.05
63654;BME280;49809;47.418;19.080;2023-02-04T21:55:16;101891.47;;;-1.73;72.45
63654;BME280;49809;47.418;19.080;2023-02-04T21:58:20;101888.44;;;-1.78;72.98
63654;BME280;49809;47.418;19.080;2023-02-04T22:01:23;101891.03;;;-1.88;73.87
63654;BME280;49809;47.418;19.080;2023-02-04T22:04:32;101884.22;;;-1.79;73.03
63654;BME280;49809;47.418;19.080;2023-02-04T22:07:38;101888.22;;;-1.75;73.28
63654;BME280;49809;47.418;19.080;2023-02-04T22:11:26;101882.03;;;-1.74;72.99
63654;BME280;49809;47.418;19.080;2023-02-04T22:14:37;101886.41;;;-1.84;73.38
63654;BME280;49809;47.418;19.080;2023-02-04T22:17:40;101891.06;;;-1.78;73.51
63654;BME280;49809;47.418;19.080;2023-02-04T22:20:43;101891.31;;;-1.81;74.02
63654;BME280;49809;47.418;19.080;2023-02-04T22:24:09;101895.97;;;-1.85;74.39
63654;BME280;49809;47.418;19.080;2023-02-04T22:27:12;101892.81;;;-1.79;73.85
63654;BME280;49809;47.418;19.080;2023-02-04T22:30:16;101897.06;;;-1.78;74.32
63654;BME280;49809;47.418;19.080;2023-02-04T22:33:24;101882.84;;;-1.83;74.43
63654;BME280;49809;47.418;19.080;2023-02-04T22:36:27;101902.25;;;-1.78;73.96
63654;BME280;49809;47.418;19.080;2023-02-04T22:39:30;101895.19;;;-1.66;73.73
63654;BME280;49809;47.418;19.080;2023-02-04T22:42:36;101890.53;;;-1.72;73.97
63654;BME280;49809;47.418;19.080;2023-02-04T22:45:59;101885.34;;;-1.72;74.19
63654;BME280;49809;47.418;19.080;2023-02-04T22:49:05;101889.41;;;-1.79;74.16
63654;BME280;49809;47.418;19.080;2023-02-04T22:52:08;101888.44;;;-1.78;73.63
63654;BME280;49809;47.418;19.080;2023-02-04T22:55:11;101880.84;;;-1.70;73.22
63654;BME280;49809;47.418;19.080;2023-02-04T22:58:14;101887.25;;;-1.64;72.81
63654;BME280;49809;47.418;19.080;2023-02-04T23:01:18;101893.66;;;-1.78;73.79
63654;BME280;49809;47.418;19.080;2023-02-04T23:04:21;101900.50;;;-1.77;73.35
63654;BME280;49809;47.418;19.080;2023-02-04T23:07:27;101891.75;;;-1.76;73.80
63654;BME280;49809;47.418;19.080;2023-02-04T23:10:31;101883.53;;;-1.81;73.75
63654;BME280;49809;47.418;19.080;2023-02-04T23:13:37;101898.59;;;-1.75;73.89
63654;BME280;49809;47.418;19.080;2023-02-04T23:16:40;101905.56;;;-1.76;73.44
63654;BME280;49809;47.418;19.080;2023-02-04T23:19:51;101904.31;;;-1.81;74.22
63654;BME280;49809;47.418;19.080;2023-02-04T23:22:56;101902.66;;;-1.82;74.53
63654;BME280;49809;47.418;19.080;2023-02-04T23:26:00;101903.44;;;-1.91;75.04
63654;BME280;49809;47.418;19.080;2023-02-04T23:29:11;101903.88;;;-1.86;74.43
63654;BME280;49809;47.418;19.080;2023-02-04T23:32:22;101909.06;;;-1.86;74.55
63654;BME280;49809;47.418;19.080;2023-02-04T23:35:25;101895.38;;;-1.88;74.80
63654;BME280;49809;47.418;19.080;2023-02-04T23:38:29;101894.84;;;-1.92;75.37
63654;BME280;49809;47.418;19.080;2023-02-04T23:41:35;101899.47;;;-1.95;75.41
63654;BME280;49809;47.418;19.080;2023-02-04T23:44:38;101895.81;;;-1.83;74.59
63654;BME280;49809;47.418;19.080;2023-02-04T23:47:50;101895.41;;;-1.79;74.16